This is the latest recevied weather packets stored in our database for station/object HS5GDX-4. If no packets are shown the sender has not sent any weather packets the latest 10 day(s).
| Time | Temp. | Humidity | Pressure | Rain* | Wind** | Luminosity | Snow |
|---|---|---|---|---|---|---|---|
| 1787934380 | 27.78° C | 72% | 965 hPa | - | - | 0 W/m² | - |
| 1787933455 | 27.78° C | 73% | 965 hPa | - | - | 0 W/m² | - |
| 1787932531 | 27.78° C | 73% | 965 hPa | - | - | 0 W/m² | - |
| 1787931607 | 28.89° C | 70% | 965 hPa | - | - | 0 W/m² | - |
| 1787930682 | 28.33° C | 71% | 965 hPa | - | - | 0 W/m² | - |
| 1787929758 | 28.89° C | 70% | 964 hPa | - | - | 0 W/m² | - |
| 1787928833 | 28.33° C | 71% | 964 hPa | - | - | 0 W/m² | - |
| 1787927909 | 28.89° C | 73% | 964 hPa | - | - | 0 W/m² | - |
| 1787926984 | 29.44° C | 71% | 964 hPa | - | - | 0 W/m² | - |
| 1787926060 | 29.44° C | 71% | 964 hPa | - | - | 0 W/m² | - |
| 1787925135 | 29.44° C | 70% | 964 hPa | - | - | 0 W/m² | - |
| 1787924211 | 29.44° C | 70% | 963 hPa | - | - | 0 W/m² | - |
| 1787923287 | 29.44° C | 69% | 963 hPa | - | - | 0 W/m² | - |
| 1787922362 | 29.44° C | 69% | 963 hPa | - | - | 0 W/m² | - |
| 1787921438 | 29.44° C | 69% | 963 hPa | - | - | 0 W/m² | - |
| 1787920513 | 29.44° C | 69% | 963 hPa | - | - | 0 W/m² | - |
| 1787919589 | 29.44° C | 69% | 962 hPa | - | - | 0 W/m² | - |
| 1787918665 | 30° C | 69% | 962 hPa | - | - | 0 W/m² | - |
| 1787917741 | 30° C | 70% | 962 hPa | - | - | 0 W/m² | - |
| 1787916816 | 30° C | 71% | 962 hPa | - | - | 0 W/m² | - |
| 1787915891 | 30° C | 71% | 962 hPa | - | - | 0 W/m² | - |
| 1787914967 | 30° C | 71% | 961 hPa | - | - | 0 W/m² | - |
| 1787914042 | 30° C | 70% | 961 hPa | - | - | 0 W/m² | - |
| 1787913118 | 30° C | 69% | 961 hPa | - | - | 0 W/m² | - |
| 1787912194 | 30° C | 68% | 961 hPa | - | - | 0 W/m² | - |
* Rain since midnight (hover to see other rain measurements)
** Current wind speed in m/s (hover to see current wind gust speed)